sensor_id;sensor_type;location;lat;lon;timestamp;P1;durP1;ratioP1;P2;durP2;ratioP2
25175;SDS011;13135;55.166;61.286;2023-04-03T00:01:06;18.63;;;7.67;;
25175;SDS011;13135;55.166;61.286;2023-04-03T00:03:50;14.00;;;7.63;;
25175;SDS011;13135;55.166;61.286;2023-04-03T00:06:35;16.60;;;8.50;;
25175;SDS011;13135;55.166;61.286;2023-04-03T00:09:21;15.23;;;7.07;;
25175;SDS011;13135;55.166;61.286;2023-04-03T00:12:06;17.63;;;8.67;;
25175;SDS011;13135;55.166;61.286;2023-04-03T00:14:51;17.13;;;7.73;;
25175;SDS011;13135;55.166;61.286;2023-04-03T00:17:34;16.67;;;7.37;;
25175;SDS011;13135;55.166;61.286;2023-04-03T00:20:18;20.33;;;8.93;;
25175;SDS011;13135;55.166;61.286;2023-04-03T00:23:03;18.23;;;8.97;;
25175;SDS011;13135;55.166;61.286;2023-04-03T00:25:47;17.30;;;8.23;;
25175;SDS011;13135;55.166;61.286;2023-04-03T00:28:34;17.20;;;8.40;;
25175;SDS011;13135;55.166;61.286;2023-04-03T00:31:19;15.83;;;8.03;;
25175;SDS011;13135;55.166;61.286;2023-04-03T00:34:03;18.97;;;8.30;;
25175;SDS011;13135;55.166;61.286;2023-04-03T00:36:47;16.30;;;7.93;;
25175;SDS011;13135;55.166;61.286;2023-04-03T00:39:34;16.60;;;7.93;;
25175;SDS011;13135;55.166;61.286;2023-04-03T00:42:19;21.70;;;8.53;;
25175;SDS011;13135;55.166;61.286;2023-04-03T00:48:15;25.43;;;8.20;;
25175;SDS011;13135;55.166;61.286;2023-04-03T00:50:58;23.70;;;8.50;;
25175;SDS011;13135;55.166;61.286;2023-04-03T00:53:47;25.03;;;9.03;;
25175;SDS011;13135;55.166;61.286;2023-04-03T00:56:28;22.93;;;8.33;;
25175;SDS011;13135;55.166;61.286;2023-04-03T00:59:16;20.07;;;9.33;;
25175;SDS011;13135;55.166;61.286;2023-04-03T01:01:59;21.67;;;8.30;;
25175;SDS011;13135;55.166;61.286;2023-04-03T01:04:45;24.23;;;8.20;;
25175;SDS011;13135;55.166;61.286;2023-04-03T01:07:29;25.30;;;8.33;;
25175;SDS011;13135;55.166;61.286;2023-04-03T01:10:18;29.63;;;9.77;;
25175;SDS011;13135;55.166;61.286;2023-04-03T01:13:07;24.57;;;9.13;;
25175;SDS011;13135;55.166;61.286;2023-04-03T01:15:47;31.70;;;11.23;;
25175;SDS011;13135;55.166;61.286;2023-04-03T01:18:32;34.03;;;11.40;;
25175;SDS011;13135;55.166;61.286;2023-04-03T01:24:30;22.93;;;10.67;;
25175;SDS011;13135;55.166;61.286;2023-04-03T01:27:16;35.87;;;12.67;;
25175;SDS011;13135;55.166;61.286;2023-04-03T01:30:01;32.47;;;13.37;;
25175;SDS011;13135;55.166;61.286;2023-04-03T01:32:45;26.60;;;10.57;;
25175;SDS011;13135;55.166;61.286;2023-04-03T01:35:30;31.83;;;11.00;;
25175;SDS011;13135;55.166;61.286;2023-04-03T01:38:21;31.70;;;11.10;;
25175;SDS011;13135;55.166;61.286;2023-04-03T01:41:06;50.47;;;14.03;;
25175;SDS011;13135;55.166;61.286;2023-04-03T01:43:52;42.23;;;13.67;;
25175;SDS011;13135;55.166;61.286;2023-04-03T01:46:38;35.30;;;10.97;;
25175;SDS011;13135;55.166;61.286;2023-04-03T01:49:25;39.10;;;11.50;;
25175;SDS011;13135;55.166;61.286;2023-04-03T01:52:09;30.83;;;11.40;;
25175;SDS011;13135;55.166;61.286;2023-04-03T01:54:56;44.63;;;15.23;;
25175;SDS011;13135;55.166;61.286;2023-04-03T01:57:40;35.40;;;14.80;;
25175;SDS011;13135;55.166;61.286;2023-04-03T02:00:27;48.93;;;16.57;;
25175;SDS011;13135;55.166;61.286;2023-04-03T02:03:14;30.37;;;13.10;;
25175;SDS011;13135;55.166;61.286;2023-04-03T02:05:58;26.07;;;12.03;;
25175;SDS011;13135;55.166;61.286;2023-04-03T02:08:44;30.83;;;11.83;;
25175;SDS011;13135;55.166;61.286;2023-04-03T02:11:28;26.07;;;10.97;;
25175;SDS011;13135;55.166;61.286;2023-04-03T02:14:12;21.13;;;11.07;;
25175;SDS011;13135;55.166;61.286;2023-04-03T02:16:57;26.20;;;10.10;;
25175;SDS011;13135;55.166;61.286;2023-04-03T02:19:42;24.17;;;10.20;;
25175;SDS011;13135;55.166;61.286;2023-04-03T02:22:26;27.07;;;12.57;;
25175;SDS011;13135;55.166;61.286;2023-04-03T02:25:10;24.70;;;10.63;;
25175;SDS011;13135;55.166;61.286;2023-04-03T02:27:55;30.00;;;11.57;;
25175;SDS011;13135;55.166;61.286;2023-04-03T02:30:40;25.97;;;11.40;;
25175;SDS011;13135;55.166;61.286;2023-04-03T02:33:26;38.93;;;11.97;;
25175;SDS011;13135;55.166;61.286;2023-04-03T02:36:09;21.73;;;10.47;;
25175;SDS011;13135;55.166;61.286;2023-04-03T02:38:54;19.73;;;9.93;;
25175;SDS011;13135;55.166;61.286;2023-04-03T02:41:45;27.63;;;11.47;;
25175;SDS011;13135;55.166;61.286;2023-04-03T02:44:26;28.57;;;11.47;;
25175;SDS011;13135;55.166;61.286;2023-04-03T02:47:10;30.13;;;10.60;;
25175;SDS011;13135;55.166;61.286;2023-04-03T02:49:57;23.73;;;11.53;;
25175;SDS011;13135;55.166;61.286;2023-04-03T02:52:42;26.00;;;12.77;;
25175;SDS011;13135;55.166;61.286;2023-04-03T02:55:27;34.07;;;15.63;;
25175;SDS011;13135;55.166;61.286;2023-04-03T02:58:11;31.10;;;13.43;;
25175;SDS011;13135;55.166;61.286;2023-04-03T03:00:55;21.23;;;10.17;;
25175;SDS011;13135;55.166;61.286;2023-04-03T03:03:40;22.43;;;10.90;;
25175;SDS011;13135;55.166;61.286;2023-04-03T03:06:33;28.47;;;13.87;;
25175;SDS011;13135;55.166;61.286;2023-04-03T03:09:23;24.00;;;10.27;;
25175;SDS011;13135;55.166;61.286;2023-04-03T03:12:14;24.63;;;10.97;;
25175;SDS011;13135;55.166;61.286;2023-04-03T03:15:07;21.97;;;9.97;;
25175;SDS011;13135;55.166;61.286;2023-04-03T03:17:56;21.40;;;9.40;;
25175;SDS011;13135;55.166;61.286;2023-04-03T03:20:44;25.30;;;9.13;;
25175;SDS011;13135;55.166;61.286;2023-04-03T03:23:36;24.70;;;9.67;;
25175;SDS011;13135;55.166;61.286;2023-04-03T03:26:30;26.57;;;9.67;;
25175;SDS011;13135;55.166;61.286;2023-04-03T03:29:20;19.70;;;8.27;;
25175;SDS011;13135;55.166;61.286;2023-04-03T03:32:12;20.40;;;9.63;;
25175;SDS011;13135;55.166;61.286;2023-04-03T03:35:05;20.17;;;9.53;;
25175;SDS011;13135;55.166;61.286;2023-04-03T03:37:56;24.10;;;9.57;;
25175;SDS011;13135;55.166;61.286;2023-04-03T03:40:43;21.80;;;9.77;;
25175;SDS011;13135;55.166;61.286;2023-04-03T03:43:34;22.83;;;9.43;;
25175;SDS011;13135;55.166;61.286;2023-04-03T03:46:22;19.13;;;8.70;;
25175;SDS011;13135;55.166;61.286;2023-04-03T03:49:11;25.77;;;9.80;;
25175;SDS011;13135;55.166;61.286;2023-04-03T03:52:02;19.80;;;9.10;;
25175;SDS011;13135;55.166;61.286;2023-04-03T03:54:52;25.40;;;9.33;;
25175;SDS011;13135;55.166;61.286;2023-04-03T03:57:46;19.17;;;9.27;;
25175;SDS011;13135;55.166;61.286;2023-04-03T04:00:39;15.27;;;8.87;;
25175;SDS011;13135;55.166;61.286;2023-04-03T04:03:29;19.20;;;8.47;;
25175;SDS011;13135;55.166;61.286;2023-04-03T04:06:20;23.03;;;10.10;;
25175;SDS011;13135;55.166;61.286;2023-04-03T04:09:14;19.57;;;8.07;;
25175;SDS011;13135;55.166;61.286;2023-04-03T04:12:05;22.57;;;8.37;;
25175;SDS011;13135;55.166;61.286;2023-04-03T04:14:59;17.53;;;8.43;;
25175;SDS011;13135;55.166;61.286;2023-04-03T04:17:51;24.97;;;8.93;;
25175;SDS011;13135;55.166;61.286;2023-04-03T04:20:39;21.10;;;9.47;;
25175;SDS011;13135;55.166;61.286;2023-04-03T04:23:28;20.40;;;9.30;;
25175;SDS011;13135;55.166;61.286;2023-04-03T04:26:19;19.80;;;8.77;;
25175;SDS011;13135;55.166;61.286;2023-04-03T04:29:10;25.27;;;9.47;;
25175;SDS011;13135;55.166;61.286;2023-04-03T04:31:58;22.50;;;9.40;;
25175;SDS011;13135;55.166;61.286;2023-04-03T04:34:48;26.43;;;8.87;;
25175;SDS011;13135;55.166;61.286;2023-04-03T04:37:39;19.00;;;9.17;;
25175;SDS011;13135;55.166;61.286;2023-04-03T04:40:27;16.17;;;7.80;;
25175;SDS011;13135;55.166;61.286;2023-04-03T04:43:16;17.70;;;8.97;;
25175;SDS011;13135;55.166;61.286;2023-04-03T04:46:11;19.97;;;8.57;;
25175;SDS011;13135;55.166;61.286;2023-04-03T04:49:00;23.07;;;9.27;;
25175;SDS011;13135;55.166;61.286;2023-04-03T04:51:53;19.60;;;8.50;;
25175;SDS011;13135;55.166;61.286;2023-04-03T04:54:47;16.43;;;7.90;;
25175;SDS011;13135;55.166;61.286;2023-04-03T04:57:35;13.23;;;6.97;;
25175;SDS011;13135;55.166;61.286;2023-04-03T05:00:24;18.97;;;8.00;;
25175;SDS011;13135;55.166;61.286;2023-04-03T05:03:20;17.43;;;7.20;;
25175;SDS011;13135;55.166;61.286;2023-04-03T05:06:10;17.73;;;7.53;;
25175;SDS011;13135;55.166;61.286;2023-04-03T05:08:59;19.20;;;7.13;;
25175;SDS011;13135;55.166;61.286;2023-04-03T05:22:19;16.08;;;6.07;;
25175;SDS011;13135;55.166;61.286;2023-04-03T05:25:08;10.83;;;6.00;;
25175;SDS011;13135;55.166;61.286;2023-04-03T05:28:02;10.87;;;5.77;;
25175;SDS011;13135;55.166;61.286;2023-04-03T05:30:52;12.43;;;5.20;;
25175;SDS011;13135;55.166;61.286;2023-04-03T05:33:30;11.90;;;6.40;;
25175;SDS011;13135;55.166;61.286;2023-04-03T05:36:15;11.33;;;5.13;;
25175;SDS011;13135;55.166;61.286;2023-04-03T05:39:00;10.53;;;5.50;;
25175;SDS011;13135;55.166;61.286;2023-04-03T05:41:44;9.40;;;5.23;;
25175;SDS011;13135;55.166;61.286;2023-04-03T05:44:28;14.23;;;5.23;;
25175;SDS011;13135;55.166;61.286;2023-04-03T05:47:13;12.33;;;5.43;;
25175;SDS011;13135;55.166;61.286;2023-04-03T05:49:57;10.70;;;4.87;;
25175;SDS011;13135;55.166;61.286;2023-04-03T05:52:44;11.80;;;6.37;;
25175;SDS011;13135;55.166;61.286;2023-04-03T05:55:29;17.23;;;5.80;;
25175;SDS011;13135;55.166;61.286;2023-04-03T05:58:19;12.37;;;5.63;;
25175;SDS011;13135;55.166;61.286;2023-04-03T06:01:04;13.70;;;4.80;;
25175;SDS011;13135;55.166;61.286;2023-04-03T06:03:49;12.57;;;5.13;;
25175;SDS011;13135;55.166;61.286;2023-04-03T06:09:33;10.23;;;5.07;;
25175;SDS011;13135;55.166;61.286;2023-04-03T06:12:17;11.87;;;4.70;;
25175;SDS011;13135;55.166;61.286;2023-04-03T06:15:02;17.27;;;4.40;;
25175;SDS011;13135;55.166;61.286;2023-04-03T06:17:51;8.00;;;3.60;;
25175;SDS011;13135;55.166;61.286;2023-04-03T06:20:41;12.80;;;4.23;;
25175;SDS011;13135;55.166;61.286;2023-04-03T06:23:23;9.57;;;3.97;;
25175;SDS011;13135;55.166;61.286;2023-04-03T06:26:13;9.30;;;4.60;;
25175;SDS011;13135;55.166;61.286;2023-04-03T06:28:58;10.87;;;4.13;;
25175;SDS011;13135;55.166;61.286;2023-04-03T06:31:43;7.93;;;3.57;;
25175;SDS011;13135;55.166;61.286;2023-04-03T06:34:27;12.43;;;4.23;;
25175;SDS011;13135;55.166;61.286;2023-04-03T06:37:18;9.10;;;4.50;;
25175;SDS011;13135;55.166;61.286;2023-04-03T06:40:18;10.30;;;4.10;;
25175;SDS011;13135;55.166;61.286;2023-04-03T06:43:00;9.17;;;4.10;;
25175;SDS011;13135;55.166;61.286;2023-04-03T06:45:46;13.55;;;5.10;;
25175;SDS011;13135;55.166;61.286;2023-04-03T06:48:31;11.87;;;4.30;;
25175;SDS011;13135;55.166;61.286;2023-04-03T06:51:20;13.17;;;4.50;;
25175;SDS011;13135;55.166;61.286;2023-04-03T06:54:08;13.43;;;5.07;;
25175;SDS011;13135;55.166;61.286;2023-04-03T06:56:58;14.00;;;6.00;;
25175;SDS011;13135;55.166;61.286;2023-04-03T06:59:40;10.43;;;5.67;;
25175;SDS011;13135;55.166;61.286;2023-04-03T07:02:24;12.67;;;4.67;;
25175;SDS011;13135;55.166;61.286;2023-04-03T07:05:11;10.23;;;4.70;;
25175;SDS011;13135;55.166;61.286;2023-04-03T07:07:55;14.47;;;4.67;;
25175;SDS011;13135;55.166;61.286;2023-04-03T07:10:40;7.37;;;3.50;;
25175;SDS011;13135;55.166;61.286;2023-04-03T07:13:25;13.83;;;4.80;;
25175;SDS011;13135;55.166;61.286;2023-04-03T07:16:11;8.02;;;4.45;;
25175;SDS011;13135;55.166;61.286;2023-04-03T07:18:59;19.47;;;5.30;;
25175;SDS011;13135;55.166;61.286;2023-04-03T07:21:43;6.20;;;3.73;;
25175;SDS011;13135;55.166;61.286;2023-04-03T07:24:33;14.00;;;4.37;;
25175;SDS011;13135;55.166;61.286;2023-04-03T07:27:19;12.00;;;4.73;;
25175;SDS011;13135;55.166;61.286;2023-04-03T07:30:05;10.70;;;4.10;;
25175;SDS011;13135;55.166;61.286;2023-04-03T07:32:51;11.63;;;4.47;;
25175;SDS011;13135;55.166;61.286;2023-04-03T07:35:36;10.73;;;4.00;;
25175;SDS011;13135;55.166;61.286;2023-04-03T08:04:41;7.80;;;2.40;;
25175;SDS011;13135;55.166;61.286;2023-04-03T08:07:25;11.50;;;2.40;;
25175;SDS011;13135;55.166;61.286;2023-04-03T08:10:10;4.97;;;2.42;;
25175;SDS011;13135;55.166;61.286;2023-04-03T08:12:57;7.18;;;2.42;;
25175;SDS011;13135;55.166;61.286;2023-04-03T08:15:41;9.27;;;2.08;;
25175;SDS011;13135;55.166;61.286;2023-04-03T08:18:25;7.60;;;2.22;;
25175;SDS011;13135;55.166;61.286;2023-04-03T08:21:11;5.12;;;2.25;;
25175;SDS011;13135;55.166;61.286;2023-04-03T08:23:57;5.15;;;2.53;;
25175;SDS011;13135;55.166;61.286;2023-04-03T08:26:41;8.07;;;2.53;;
25175;SDS011;13135;55.166;61.286;2023-04-03T08:29:26;3.97;;;2.08;;
25175;SDS011;13135;55.166;61.286;2023-04-03T08:32:10;12.50;;;2.45;;
25175;SDS011;13135;55.166;61.286;2023-04-03T08:34:55;3.30;;;1.80;;
25175;SDS011;13135;55.166;61.286;2023-04-03T08:37:40;6.28;;;2.12;;
25175;SDS011;13135;55.166;61.286;2023-04-03T08:40:24;7.45;;;2.87;;
25175;SDS011;13135;55.166;61.286;2023-04-03T08:43:19;7.20;;;2.65;;
25175;SDS011;13135;55.166;61.286;2023-04-03T08:46:14;7.43;;;1.87;;
25175;SDS011;13135;55.166;61.286;2023-04-03T08:49:11;6.72;;;2.60;;
25175;SDS011;13135;55.166;61.286;2023-04-03T08:51:55;4.60;;;1.70;;
25175;SDS011;13135;55.166;61.286;2023-04-03T08:54:58;6.80;;;1.87;;
25175;SDS011;13135;55.166;61.286;2023-04-03T08:57:44;5.50;;;1.98;;
25175;SDS011;13135;55.166;61.286;2023-04-03T09:00:27;6.35;;;2.35;;
25175;SDS011;13135;55.166;61.286;2023-04-03T09:03:19;7.97;;;2.20;;
25175;SDS011;13135;55.166;61.286;2023-04-03T09:06:04;8.45;;;2.00;;
25175;SDS011;13135;55.166;61.286;2023-04-03T09:08:56;5.15;;;2.03;;
25175;SDS011;13135;55.166;61.286;2023-04-03T09:11:47;3.95;;;1.85;;
25175;SDS011;13135;55.166;61.286;2023-04-03T09:14:33;3.12;;;1.55;;
25175;SDS011;13135;55.166;61.286;2023-04-03T09:23:44;8.80;;;2.35;;
25175;SDS011;13135;55.166;61.286;2023-04-03T09:26:30;6.30;;;2.20;;
25175;SDS011;13135;55.166;61.286;2023-04-03T09:29:18;6.80;;;1.98;;
25175;SDS011;13135;55.166;61.286;2023-04-03T09:32:12;4.07;;;2.60;;
25175;SDS011;13135;55.166;61.286;2023-04-03T09:34:48;11.77;;;3.08;;
25175;SDS011;13135;55.166;61.286;2023-04-03T09:37:39;8.80;;;2.30;;
25175;SDS011;13135;55.166;61.286;2023-04-03T09:40:33;4.40;;;1.90;;
25175;SDS011;13135;55.166;61.286;2023-04-03T09:43:25;7.03;;;3.12;;
25175;SDS011;13135;55.166;61.286;2023-04-03T09:49:03;5.85;;;1.80;;
25175;SDS011;13135;55.166;61.286;2023-04-03T09:51:46;4.10;;;1.90;;
25175;SDS011;13135;55.166;61.286;2023-04-03T09:54:33;7.60;;;2.35;;
25175;SDS011;13135;55.166;61.286;2023-04-03T09:57:17;8.95;;;2.30;;
25175;SDS011;13135;55.166;61.286;2023-04-03T10:00:03;8.55;;;2.25;;
25175;SDS011;13135;55.166;61.286;2023-04-03T10:02:50;6.18;;;1.65;;
25175;SDS011;13135;55.166;61.286;2023-04-03T10:05:35;4.37;;;1.70;;
25175;SDS011;13135;55.166;61.286;2023-04-03T10:08:21;6.45;;;1.58;;
25175;SDS011;13135;55.166;61.286;2023-04-03T10:11:08;3.33;;;1.37;;
25175;SDS011;13135;55.166;61.286;2023-04-03T10:13:54;4.25;;;1.20;;
25175;SDS011;13135;55.166;61.286;2023-04-03T10:16:41;4.65;;;1.60;;
25175;SDS011;13135;55.166;61.286;2023-04-03T10:19:42;6.53;;;1.37;;
25175;SDS011;13135;55.166;61.286;2023-04-03T10:22:32;6.70;;;1.30;;
25175;SDS011;13135;55.166;61.286;2023-04-03T10:25:33;4.70;;;1.27;;
25175;SDS011;13135;55.166;61.286;2023-04-03T10:31:22;5.80;;;1.48;;
25175;SDS011;13135;55.166;61.286;2023-04-03T10:34:21;2.30;;;1.30;;
25175;SDS011;13135;55.166;61.286;2023-04-03T10:37:13;3.60;;;1.45;;
25175;SDS011;13135;55.166;61.286;2023-04-03T10:40:22;6.53;;;1.83;;
25175;SDS011;13135;55.166;61.286;2023-04-03T10:43:24;3.30;;;1.30;;
25175;SDS011;13135;55.166;61.286;2023-04-03T10:46:09;9.43;;;2.10;;
25175;SDS011;13135;55.166;61.286;2023-04-03T10:51:48;4.80;;;2.00;;
25175;SDS011;13135;55.166;61.286;2023-04-03T10:54:36;5.70;;;1.80;;
25175;SDS011;13135;55.166;61.286;2023-04-03T10:57:20;3.70;;;1.90;;
25175;SDS011;13135;55.166;61.286;2023-04-03T11:00:06;3.60;;;1.98;;
25175;SDS011;13135;55.166;61.286;2023-04-03T11:02:56;7.87;;;2.22;;
25175;SDS011;13135;55.166;61.286;2023-04-03T11:05:39;5.40;;;2.25;;
25175;SDS011;13135;55.166;61.286;2023-04-03T11:08:28;7.07;;;2.30;;
25175;SDS011;13135;55.166;61.286;2023-04-03T11:11:31;3.15;;;2.22;;
25175;SDS011;13135;55.166;61.286;2023-04-03T11:20:16;3.65;;;2.20;;
25175;SDS011;13135;55.166;61.286;2023-04-03T11:23:01;2.75;;;2.47;;
25175;SDS011;13135;55.166;61.286;2023-04-03T11:25:44;3.42;;;2.20;;
25175;SDS011;13135;55.166;61.286;2023-04-03T11:28:31;3.87;;;2.40;;
25175;SDS011;13135;55.166;61.286;2023-04-03T11:31:38;5.35;;;2.37;;
25175;SDS011;13135;55.166;61.286;2023-04-03T11:34:21;4.45;;;1.90;;
25175;SDS011;13135;55.166;61.286;2023-04-03T11:37:10;9.75;;;2.30;;
25175;SDS011;13135;55.166;61.286;2023-04-03T11:39:53;5.85;;;2.05;;
25175;SDS011;13135;55.166;61.286;2023-04-03T11:42:40;4.68;;;1.80;;
25175;SDS011;13135;55.166;61.286;2023-04-03T11:45:28;5.95;;;2.22;;
25175;SDS011;13135;55.166;61.286;2023-04-03T11:54:36;9.80;;;3.05;;
25175;SDS011;13135;55.166;61.286;2023-04-03T12:34:12;10.07;;;1.98;;
25175;SDS011;13135;55.166;61.286;2023-04-03T12:37:07;7.22;;;1.85;;
25175;SDS011;13135;55.166;61.286;2023-04-03T12:43:05;4.93;;;1.77;;
25175;SDS011;13135;55.166;61.286;2023-04-03T12:45:51;4.55;;;1.73;;
25175;SDS011;13135;55.166;61.286;2023-04-03T12:48:38;5.93;;;1.50;;
25175;SDS011;13135;55.166;61.286;2023-04-03T12:51:38;8.77;;;1.80;;
25175;SDS011;13135;55.166;61.286;2023-04-03T12:57:18;2.92;;;1.52;;
25175;SDS011;13135;55.166;61.286;2023-04-03T13:00:18;7.20;;;1.87;;
25175;SDS011;13135;55.166;61.286;2023-04-03T13:02:49;9.95;;;2.17;;
25175;SDS011;13135;55.166;61.286;2023-04-03T13:05:38;6.68;;;3.10;;
25175;SDS011;13135;55.166;61.286;2023-04-03T13:08:23;5.72;;;1.90;;
25175;SDS011;13135;55.166;61.286;2023-04-03T13:11:10;7.32;;;2.10;;
25175;SDS011;13135;55.166;61.286;2023-04-03T13:13:55;7.07;;;1.70;;
25175;SDS011;13135;55.166;61.286;2023-04-03T13:19:47;4.87;;;1.98;;
25175;SDS011;13135;55.166;61.286;2023-04-03T13:22:33;7.72;;;1.70;;
25175;SDS011;13135;55.166;61.286;2023-04-03T13:25:17;6.18;;;1.85;;
25175;SDS011;13135;55.166;61.286;2023-04-03T13:28:03;7.53;;;1.90;;
25175;SDS011;13135;55.166;61.286;2023-04-03T13:30:56;9.05;;;3.37;;
25175;SDS011;13135;55.166;61.286;2023-04-03T13:33:43;3.92;;;2.10;;
25175;SDS011;13135;55.166;61.286;2023-04-03T13:36:29;12.10;;;2.00;;
25175;SDS011;13135;55.166;61.286;2023-04-03T13:39:29;9.25;;;1.92;;
25175;SDS011;13135;55.166;61.286;2023-04-03T13:42:15;6.72;;;1.70;;
25175;SDS011;13135;55.166;61.286;2023-04-03T13:48:07;6.80;;;2.40;;
25175;SDS011;13135;55.166;61.286;2023-04-03T13:50:57;5.40;;;2.08;;
25175;SDS011;13135;55.166;61.286;2023-04-03T13:53:43;5.05;;;2.10;;
25175;SDS011;13135;55.166;61.286;2023-04-03T13:56:33;5.78;;;2.20;;
25175;SDS011;13135;55.166;61.286;2023-04-03T13:59:23;6.85;;;2.28;;
25175;SDS011;13135;55.166;61.286;2023-04-03T14:02:15;5.03;;;1.90;;
25175;SDS011;13135;55.166;61.286;2023-04-03T14:05:02;4.05;;;2.55;;
25175;SDS011;13135;55.166;61.286;2023-04-03T14:07:47;6.07;;;3.45;;
25175;SDS011;13135;55.166;61.286;2023-04-03T14:10:33;6.65;;;2.45;;
25175;SDS011;13135;55.166;61.286;2023-04-03T14:13:18;4.78;;;1.67;;
25175;SDS011;13135;55.166;61.286;2023-04-03T14:16:02;15.07;;;2.45;;
25175;SDS011;13135;55.166;61.286;2023-04-03T14:18:47;4.95;;;1.60;;
25175;SDS011;13135;55.166;61.286;2023-04-03T14:21:37;10.32;;;2.37;;
25175;SDS011;13135;55.166;61.286;2023-04-03T14:24:18;10.23;;;1.85;;
25175;SDS011;13135;55.166;61.286;2023-04-03T14:27:01;7.53;;;2.03;;
25175;SDS011;13135;55.166;61.286;2023-04-03T14:29:43;6.60;;;1.40;;
25175;SDS011;13135;55.166;61.286;2023-04-03T14:32:27;4.80;;;1.77;;
25175;SDS011;13135;55.166;61.286;2023-04-03T14:35:15;7.55;;;1.65;;
25175;SDS011;13135;55.166;61.286;2023-04-03T14:38:12;12.05;;;3.03;;
25175;SDS011;13135;55.166;61.286;2023-04-03T14:51:25;5.90;;;2.40;;
25175;SDS011;13135;55.166;61.286;2023-04-03T14:54:19;6.43;;;2.20;;
25175;SDS011;13135;55.166;61.286;2023-04-03T14:57:02;11.73;;;2.33;;
25175;SDS011;13135;55.166;61.286;2023-04-03T14:59:47;8.10;;;2.60;;
25175;SDS011;13135;55.166;61.286;2023-04-03T15:02:32;7.85;;;2.87;;
25175;SDS011;13135;55.166;61.286;2023-04-03T15:05:17;8.45;;;3.17;;
25175;SDS011;13135;55.166;61.286;2023-04-03T15:08:01;8.10;;;3.40;;
25175;SDS011;13135;55.166;61.286;2023-04-03T15:10:45;12.57;;;3.93;;
25175;SDS011;13135;55.166;61.286;2023-04-03T15:13:30;8.13;;;4.30;;
25175;SDS011;13135;55.166;61.286;2023-04-03T15:16:19;16.42;;;4.15;;
25175;SDS011;13135;55.166;61.286;2023-04-03T15:19:03;9.77;;;3.50;;
25175;SDS011;13135;55.166;61.286;2023-04-03T15:21:49;11.82;;;5.93;;
25175;SDS011;13135;55.166;61.286;2023-04-03T15:24:33;12.32;;;4.03;;
25175;SDS011;13135;55.166;61.286;2023-04-03T15:27:18;16.47;;;3.67;;
25175;SDS011;13135;55.166;61.286;2023-04-03T15:30:03;14.48;;;4.18;;
25175;SDS011;13135;55.166;61.286;2023-04-03T15:32:49;13.43;;;4.80;;
25175;SDS011;13135;55.166;61.286;2023-04-03T15:35:33;11.87;;;3.77;;
25175;SDS011;13135;55.166;61.286;2023-04-03T15:38:25;13.05;;;4.37;;
25175;SDS011;13135;55.166;61.286;2023-04-03T15:41:10;10.05;;;3.65;;
25175;SDS011;13135;55.166;61.286;2023-04-03T15:43:56;18.00;;;3.97;;
25175;SDS011;13135;55.166;61.286;2023-04-03T15:46:40;15.57;;;3.60;;
25175;SDS011;13135;55.166;61.286;2023-04-03T15:49:24;15.30;;;6.43;;
25175;SDS011;13135;55.166;61.286;2023-04-03T15:52:09;11.67;;;5.83;;
25175;SDS011;13135;55.166;61.286;2023-04-03T15:54:56;17.73;;;5.80;;
25175;SDS011;13135;55.166;61.286;2023-04-03T15:57:40;14.10;;;6.17;;
25175;SDS011;13135;55.166;61.286;2023-04-03T16:00:25;22.10;;;8.00;;
25175;SDS011;13135;55.166;61.286;2023-04-03T16:03:10;11.07;;;5.43;;
25175;SDS011;13135;55.166;61.286;2023-04-03T16:05:53;17.67;;;8.73;;
25175;SDS011;13135;55.166;61.286;2023-04-03T16:08:37;9.67;;;5.73;;
25175;SDS011;13135;55.166;61.286;2023-04-03T16:11:24;9.77;;;4.60;;
25175;SDS011;13135;55.166;61.286;2023-04-03T16:14:09;10.37;;;5.60;;
25175;SDS011;13135;55.166;61.286;2023-04-03T16:16:53;12.70;;;4.50;;
25175;SDS011;13135;55.166;61.286;2023-04-03T16:19:39;11.57;;;5.03;;
25175;SDS011;13135;55.166;61.286;2023-04-03T16:22:26;12.90;;;5.80;;
25175;SDS011;13135;55.166;61.286;2023-04-03T16:25:11;19.70;;;6.53;;
25175;SDS011;13135;55.166;61.286;2023-04-03T16:27:52;10.30;;;4.40;;
25175;SDS011;13135;55.166;61.286;2023-04-03T16:30:37;10.90;;;4.20;;
25175;SDS011;13135;55.166;61.286;2023-04-03T16:33:22;10.83;;;3.70;;
25175;SDS011;13135;55.166;61.286;2023-04-03T16:36:07;7.77;;;3.67;;
25175;SDS011;13135;55.166;61.286;2023-04-03T16:38:51;6.67;;;2.80;;
25175;SDS011;13135;55.166;61.286;2023-04-03T16:41:35;9.67;;;3.07;;
25175;SDS011;13135;55.166;61.286;2023-04-03T16:44:20;6.13;;;2.67;;
25175;SDS011;13135;55.166;61.286;2023-04-03T16:47:05;13.87;;;2.97;;
25175;SDS011;13135;55.166;61.286;2023-04-03T16:49:55;14.03;;;6.70;;
25175;SDS011;13135;55.166;61.286;2023-04-03T16:52:46;18.93;;;8.50;;
25175;SDS011;13135;55.166;61.286;2023-04-03T16:55:30;11.27;;;3.30;;
25175;SDS011;13135;55.166;61.286;2023-04-03T16:58:22;14.67;;;4.53;;
25175;SDS011;13135;55.166;61.286;2023-04-03T17:01:11;15.00;;;3.67;;
25175;SDS011;13135;55.166;61.286;2023-04-03T17:03:58;13.70;;;3.00;;
25175;SDS011;13135;55.166;61.286;2023-04-03T17:06:43;20.23;;;3.80;;
25175;SDS011;13135;55.166;61.286;2023-04-03T17:09:27;15.47;;;3.63;;
25175;SDS011;13135;55.166;61.286;2023-04-03T17:12:12;8.57;;;2.97;;
25175;SDS011;13135;55.166;61.286;2023-04-03T17:14:56;11.73;;;3.07;;
25175;SDS011;13135;55.166;61.286;2023-04-03T17:17:41;9.80;;;3.23;;
25175;SDS011;13135;55.166;61.286;2023-04-03T17:20:26;8.23;;;2.27;;
25175;SDS011;13135;55.166;61.286;2023-04-03T17:23:10;11.13;;;3.93;;
25175;SDS011;13135;55.166;61.286;2023-04-03T17:26:01;8.77;;;3.33;;
25175;SDS011;13135;55.166;61.286;2023-04-03T17:28:48;8.07;;;2.30;;
25175;SDS011;13135;55.166;61.286;2023-04-03T17:31:33;8.57;;;2.77;;
25175;SDS011;13135;55.166;61.286;2023-04-03T17:34:20;6.37;;;2.80;;
25175;SDS011;13135;55.166;61.286;2023-04-03T17:37:06;6.20;;;2.40;;
25175;SDS011;13135;55.166;61.286;2023-04-03T17:39:51;10.03;;;2.50;;
25175;SDS011;13135;55.166;61.286;2023-04-03T17:42:34;9.20;;;2.60;;
25175;SDS011;13135;55.166;61.286;2023-04-03T17:45:19;4.07;;;2.07;;
25175;SDS011;13135;55.166;61.286;2023-04-03T17:48:03;4.00;;;2.00;;
25175;SDS011;13135;55.166;61.286;2023-04-03T17:50:50;3.73;;;2.00;;
25175;SDS011;13135;55.166;61.286;2023-04-03T17:53:36;3.33;;;2.10;;
25175;SDS011;13135;55.166;61.286;2023-04-03T17:56:26;3.90;;;2.03;;
25175;SDS011;13135;55.166;61.286;2023-04-03T17:59:07;7.60;;;2.30;;
25175;SDS011;13135;55.166;61.286;2023-04-03T18:01:52;5.07;;;1.80;;
25175;SDS011;13135;55.166;61.286;2023-04-03T18:04:39;7.20;;;2.40;;
25175;SDS011;13135;55.166;61.286;2023-04-03T18:07:24;6.20;;;2.00;;
25175;SDS011;13135;55.166;61.286;2023-04-03T18:10:09;9.73;;;3.17;;
25175;SDS011;13135;55.166;61.286;2023-04-03T18:12:53;5.70;;;2.70;;
25175;SDS011;13135;55.166;61.286;2023-04-03T18:15:39;8.20;;;2.77;;
25175;SDS011;13135;55.166;61.286;2023-04-03T18:18:24;5.00;;;2.70;;
25175;SDS011;13135;55.166;61.286;2023-04-03T18:21:09;6.93;;;2.50;;
25175;SDS011;13135;55.166;61.286;2023-04-03T18:23:54;9.30;;;2.70;;
25175;SDS011;13135;55.166;61.286;2023-04-03T18:26:40;6.23;;;2.90;;
25175;SDS011;13135;55.166;61.286;2023-04-03T18:29:27;4.57;;;2.57;;
25175;SDS011;13135;55.166;61.286;2023-04-03T18:32:12;7.77;;;2.90;;
25175;SDS011;13135;55.166;61.286;2023-04-03T18:34:58;6.47;;;2.23;;